createdAt,value
2024-05-09T00:02:21.304Z,102189.36
2024-05-09T00:07:26.918Z,102190.12
2024-05-09T00:12:32.582Z,102193.09
2024-05-09T00:17:38.355Z,102204.37
2024-05-09T00:22:44.362Z,102195.23
2024-05-09T00:27:50.099Z,102202.15
2024-05-09T00:32:55.771Z,102195.25
2024-05-09T00:38:02.046Z,102195.78
2024-05-09T00:43:08.187Z,102195.97
2024-05-09T00:48:18.571Z,102198.80
2024-05-09T00:53:23.015Z,102207.68
2024-05-09T00:58:30.669Z,102196.52
2024-05-09T01:03:36.397Z,102199.67
2024-05-09T01:08:42.449Z,102199.67
2024-05-09T01:13:48.176Z,102190.02
2024-05-09T01:18:53.957Z,102192.28
2024-05-09T01:23:59.705Z,102192.82
2024-05-09T01:29:05.530Z,102187.55
2024-05-09T01:34:11.437Z,102174.32
2024-05-09T01:39:17.220Z,102182.77
2024-05-09T01:44:22.972Z,102182.90
2024-05-09T01:49:28.817Z,102187.59
2024-05-09T01:54:34.422Z,102187.59
2024-05-09T01:59:40.032Z,102183.68
2024-05-09T02:04:50.694Z,102180.77
2024-05-09T02:09:56.337Z,102179.48
2024-05-09T02:15:01.907Z,102177.36
2024-05-09T02:20:13.149Z,102173.93
2024-05-09T02:25:15.711Z,102171.82
2024-05-09T02:30:29.992Z,102171.84
2024-05-09T02:35:28.938Z,102186.47
2024-05-09T02:40:37.998Z,102186.14
2024-05-09T02:45:42.177Z,102182.63
2024-05-09T02:50:47.928Z,102194.22
2024-05-09T02:55:53.709Z,102193.80
2024-05-09T03:00:59.511Z,102186.31
2024-05-09T03:06:05.551Z,102192.48
2024-05-09T03:11:11.418Z,102196.88
2024-05-09T03:16:17.285Z,102198.64
2024-05-09T03:21:23.355Z,102192.96
2024-05-09T03:26:28.996Z,102192.05
2024-05-09T03:31:35.010Z,102187.13
2024-05-09T03:36:43.963Z,102187.45
2024-05-09T03:41:49.511Z,102190.95
2024-05-09T03:46:55.193Z,102193.06
2024-05-09T03:52:02.589Z,102198.18
2024-05-09T03:57:08.152Z,102194.80
2024-05-09T04:02:13.945Z,102196.23
2024-05-09T04:07:19.592Z,102203.76
2024-05-09T04:12:25.336Z,102194.84
2024-05-09T04:17:31.446Z,102194.62
2024-05-09T04:22:37.415Z,102195.63
2024-05-09T04:27:43.074Z,102205.78
2024-05-09T04:32:48.780Z,102215.37
2024-05-09T04:37:54.776Z,102205.05
2024-05-09T04:43:00.601Z,102206.00
2024-05-09T04:48:07.053Z,102203.86
2024-05-09T04:53:15.867Z,102203.03
2024-05-09T04:58:21.795Z,102213.17
2024-05-09T05:03:27.735Z,102211.14
2024-05-09T05:08:33.782Z,102209.20
2024-05-09T05:13:41.507Z,102211.38
2024-05-09T05:18:46.924Z,102212.59
2024-05-09T05:23:52.580Z,102209.05
2024-05-09T05:28:58.320Z,102208.89
2024-05-09T05:34:04.164Z,102212.20
2024-05-09T05:39:09.991Z,102210.00
2024-05-09T05:44:16.094Z,102210.00
2024-05-09T05:49:21.940Z,102214.67
2024-05-09T05:54:27.923Z,102218.02
2024-05-09T05:59:33.695Z,102219.73
2024-05-09T06:04:39.651Z,102170.59
2024-05-09T06:09:47.619Z,102220.11
2024-05-09T06:14:52.736Z,102224.72
2024-05-09T06:19:58.465Z,102225.61
2024-05-09T06:25:04.279Z,102213.97
2024-05-09T06:30:21.140Z,102217.41
2024-05-09T06:35:18.179Z,102212.28
2024-05-09T06:40:29.299Z,102215.14
2024-05-09T06:45:31.450Z,102212.33
2024-05-09T06:50:38.859Z,102215.90
2024-05-09T06:55:44.960Z,102206.03
2024-05-09T07:00:50.880Z,102207.20
2024-05-09T07:05:56.748Z,102212.85
2024-05-09T07:11:02.614Z,102212.87
2024-05-09T07:16:08.725Z,102209.19
2024-05-09T07:21:14.700Z,102199.55
2024-05-09T07:26:20.504Z,102199.98
2024-05-09T07:31:27.895Z,102203.41
2024-05-09T07:36:34.022Z,102195.71
2024-05-09T07:41:39.705Z,102200.17
2024-05-09T07:47:48.293Z,102190.49
2024-05-09T07:53:21.118Z,102193.80
2024-05-09T07:57:00.483Z,102188.34
2024-05-09T08:02:07.216Z,102187.97
2024-05-09T08:07:13.325Z,102170.48
2024-05-09T08:12:19.067Z,102174.83
2024-05-09T08:17:24.893Z,102173.07
2024-05-09T08:22:32.368Z,102161.90
2024-05-09T08:27:38.160Z,102165.14
2024-05-09T08:32:45.587Z,102158.36
2024-05-09T08:37:51.431Z,102160.70
2024-05-09T08:42:58.950Z,102158.13
2024-05-09T08:48:07.983Z,102151.76
2024-05-09T08:53:15.380Z,102150.50
2024-05-09T08:58:21.378Z,102143.65
2024-05-09T09:03:30.525Z,102145.86
2024-05-09T09:08:37.933Z,102146.41
2024-05-09T09:13:43.868Z,102146.73
2024-05-09T09:18:51.493Z,102148.64
2024-05-09T09:23:57.835Z,102140.25
2024-05-09T09:29:03.511Z,102132.66
2024-05-09T09:34:10.455Z,102130.95
2024-05-09T09:39:19.622Z,102134.95
2024-05-09T09:44:26.367Z,102122.48
2024-05-09T09:49:35.644Z,102126.11
2024-05-09T09:54:43.242Z,102119.84
2024-05-09T09:59:51.344Z,102111.40
2024-05-09T10:04:57.494Z,102104.95
2024-05-09T10:10:05.101Z,102101.29
2024-05-09T10:15:11.536Z,102094.12
2024-05-09T10:20:21.963Z,102099.78
2024-05-09T10:25:25.435Z,102090.66
2024-05-09T10:30:36.110Z,102088.64
2024-05-09T10:35:39.420Z,102089.90
2024-05-09T10:40:46.849Z,102087.56
2024-05-09T10:45:53.674Z,102080.18
2024-05-09T10:50:59.720Z,102074.30
2024-05-09T10:56:06.092Z,102068.88
2024-05-09T11:01:12.535Z,102070.02
2024-05-09T11:06:19.252Z,102069.88
2024-05-09T11:11:24.976Z,102054.97
2024-05-09T11:16:30.849Z,102064.12
2024-05-09T11:21:36.580Z,102058.05
2024-05-09T11:26:43.855Z,102041.05
2024-05-09T11:31:50.809Z,102044.64
2024-05-09T11:36:56.701Z,102037.40
2024-05-09T11:42:02.653Z,102024.39
2024-05-09T11:47:08.604Z,102019.26
2024-05-09T11:52:14.396Z,102020.84
2024-05-09T11:57:20.241Z,102008.42
2024-05-09T12:02:26.094Z,102005.94
2024-05-09T12:07:31.896Z,102001.11
2024-05-09T12:12:37.703Z,101999.27
2024-05-09T12:17:44.152Z,102001.75
2024-05-09T12:22:50.505Z,102004.91
2024-05-09T12:27:56.385Z,101997.06
2024-05-09T12:33:02.107Z,101987.88
2024-05-09T12:38:07.943Z,101983.32
2024-05-09T12:43:13.547Z,101977.56
2024-05-09T12:48:19.575Z,101982.47
2024-05-09T12:53:26.009Z,101974.31
2024-05-09T12:58:31.899Z,101971.31
2024-05-09T13:03:37.908Z,101969.61
2024-05-09T13:08:44.180Z,101951.94
2024-05-09T13:13:49.987Z,101947.38
2024-05-09T13:18:55.549Z,101942.44
2024-05-09T13:24:01.267Z,101929.50
2024-05-09T13:29:07.045Z,101929.73
2024-05-09T13:34:13.041Z,101930.57
2024-05-09T13:39:18.713Z,101922.16
2024-05-09T13:44:24.352Z,101925.63
2024-05-09T13:49:30.253Z,101909.86
2024-05-09T13:54:37.116Z,101909.48
2024-05-09T13:59:42.929Z,101898.36
2024-05-09T14:04:48.732Z,101895.66
2024-05-09T14:09:54.729Z,101890.22
2024-05-09T14:15:00.459Z,101890.84
2024-05-09T14:20:09.461Z,101885.16
2024-05-09T14:25:14.594Z,101880.08
2024-05-09T14:30:30.131Z,101880.09
2024-05-09T14:35:27.900Z,101867.11
2024-05-09T14:40:41.232Z,101856.11
2024-05-09T14:45:42.469Z,101853.67
2024-05-09T14:50:48.778Z,101841.78
2024-05-09T14:55:54.636Z,101832.77
2024-05-09T15:01:00.590Z,101828.16
2024-05-09T15:06:06.845Z,101829.42
2024-05-09T15:11:12.600Z,101826.46
2024-05-09T15:16:21.714Z,101818.88
2024-05-09T15:21:27.489Z,101819.50
2024-05-09T15:26:33.162Z,101812.95
2024-05-09T15:31:38.770Z,101814.80
2024-05-09T15:36:46.464Z,101805.78
2024-05-09T15:41:56.851Z,101806.63
2024-05-09T15:47:02.579Z,101798.97
2024-05-09T15:52:08.497Z,101800.45
2024-05-09T15:57:14.364Z,101798.69
2024-05-09T16:02:21.356Z,101787.09
2024-05-09T16:07:27.424Z,101786.46
2024-05-09T16:12:33.139Z,101788.70
2024-05-09T16:17:39.056Z,101780.31
2024-05-09T16:22:46.171Z,101775.87
2024-05-09T16:27:52.787Z,101774.19
2024-05-09T16:32:58.738Z,101769.37
2024-05-09T16:38:05.930Z,101770.37
2024-05-09T16:43:13.612Z,101779.42
2024-05-09T16:48:20.151Z,101788.58
2024-05-09T16:53:26.419Z,101786.46
2024-05-09T16:58:32.550Z,101789.38
2024-05-09T17:03:38.479Z,101779.39
2024-05-09T17:08:44.636Z,101777.17
2024-05-09T17:13:50.287Z,101776.86
2024-05-09T17:18:56.078Z,101773.41
2024-05-09T17:24:01.736Z,101778.69
2024-05-09T17:29:10.896Z,101770.16
2024-05-09T17:34:14.941Z,101774.52
2024-05-09T17:39:21.002Z,101771.69
2024-05-09T17:44:27.986Z,101773.88
2024-05-09T17:49:33.655Z,101770.28
2024-05-09T17:54:39.532Z,101774.99
2024-05-09T17:59:45.806Z,101771.42
2024-05-09T18:04:51.549Z,101768.48
2024-05-09T18:09:57.400Z,101773.59
2024-05-09T18:15:03.643Z,101767.33
2024-05-09T18:20:17.206Z,101765.07
2024-05-09T18:25:17.655Z,101767.68
2024-05-09T18:30:28.087Z,101767.89
2024-05-09T18:35:30.912Z,101782.34
2024-05-09T18:40:38.302Z,101777.60
2024-05-09T18:45:44.668Z,101777.28
2024-05-09T18:50:51.036Z,101786.23
2024-05-09T18:55:56.988Z,101782.91
2024-05-09T19:01:03.000Z,101790.74
2024-05-09T19:06:08.960Z,101799.58
2024-05-09T19:11:14.827Z,101803.04
2024-05-09T19:16:20.867Z,101806.55
2024-05-09T19:21:26.813Z,101803.36
2024-05-09T19:26:32.706Z,101802.97
2024-05-09T19:31:38.459Z,101800.82
2024-05-09T19:36:44.272Z,101800.77
2024-05-09T19:41:51.746Z,101798.98
2024-05-09T19:46:57.520Z,101791.69
2024-05-09T19:52:03.136Z,101794.08
2024-05-09T19:57:09.370Z,101798.30
2024-05-09T20:02:17.626Z,101796.60
2024-05-09T20:07:23.690Z,101799.16
2024-05-09T20:12:29.332Z,101801.78
2024-05-09T20:17:35.226Z,101799.41
2024-05-09T20:22:40.962Z,101797.86
2024-05-09T20:27:46.687Z,101803.97
2024-05-09T20:32:53.785Z,101798.91
2024-05-09T20:37:59.720Z,101803.13
2024-05-09T20:43:06.236Z,101792.67
2024-05-09T20:48:12.455Z,101789.66
2024-05-09T20:53:18.141Z,101797.05
2024-05-09T20:58:24.935Z,101792.29
2024-05-09T21:03:32.765Z,101799.19
2024-05-09T21:08:38.630Z,101792.65
2024-05-09T21:13:44.227Z,101796.62
2024-05-09T21:18:49.830Z,101795.53
2024-05-09T21:23:55.467Z,101791.64
2024-05-09T21:29:01.194Z,101789.37
2024-05-09T21:34:06.845Z,101786.52
2024-05-09T21:39:12.632Z,101789.04
2024-05-09T21:44:18.196Z,101781.26
2024-05-09T21:49:23.960Z,101783.88
2024-05-09T21:54:29.743Z,101788.16
2024-05-09T21:59:35.449Z,101777.18
2024-05-09T22:04:41.231Z,101780.33
2024-05-09T22:09:47.087Z,101793.25
2024-05-09T22:14:52.872Z,101798.84
2024-05-09T22:19:58.489Z,101796.17
2024-05-09T22:25:04.280Z,101792.74
2024-05-09T22:30:14.695Z,101788.85
2024-05-09T22:35:17.944Z,101787.05
2024-05-09T22:40:32.275Z,101783.19
2024-05-09T22:45:31.041Z,101783.34
2024-05-09T22:50:36.729Z,101775.50
2024-05-09T22:55:42.926Z,101776.13
2024-05-09T23:00:48.980Z,101778.20
2024-05-09T23:05:54.910Z,101765.87
2024-05-09T23:11:00.902Z,101766.02
2024-05-09T23:16:07.336Z,101763.67
2024-05-09T23:21:13.168Z,101760.59
2024-05-09T23:26:19.016Z,101759.19
2024-05-09T23:31:24.939Z,101762.20
2024-05-09T23:36:30.758Z,101758.59
2024-05-09T23:41:36.634Z,101759.33
2024-05-09T23:46:42.255Z,101756.66
2024-05-09T23:51:48.135Z,101751.47
2024-05-09T23:56:53.942Z,101748.56
